Time;durP1;ratioP1;P1;durP2;ratioP2;P2;SDS_P1;SDS_P2;PMS_P1;PMS_P2;Temp;Humidity;BMP_temperature;BMP_pressure;BME280_temperature;BME280_humidity;BME280_pressure;Samples;Min_cycle;Max_cycle;Signal;HPM_P1;HPM_P2
2021/10/23 00:02:24;;;;;;;18.33;5.80;;;;;;;;;;5070512;28;20021;-69
2021/10/23 00:04:49;;;;;;;17.65;6.40;;;;;;;;;;5070013;28;20099;-65
2021/10/23 00:07:14;;;;;;;26.23;6.50;;;;;;;;;;5070062;28;20074;-68
2021/10/23 00:09:39;;;;;;;25.20;7.43;;;;;;;;;;5067010;28;20035;-65
2021/10/23 00:12:05;;;;;;;28.75;9.95;;;;;;;;;;5069916;28;20025;-67
2021/10/23 00:14:30;;;;;;;30.95;8.02;;;;;;;;;;5070400;28;20070;-67
2021/10/23 00:16:55;;;;;;;25.03;9.07;;;;;;;;;;5069874;28;20542;-65
2021/10/23 00:19:20;;;;;;;31.43;9.87;;;;;;;;;;5069754;28;20261;-66
2021/10/23 00:21:46;;;;;;;23.10;9.98;;;;;;;;;;5070126;28;20607;-65
2021/10/23 00:24:11;;;;;;;24.83;9.48;;;;;;;;;;5069956;28;20032;-65
2021/10/23 00:26:36;;;;;;;31.73;9.63;;;;;;;;;;5069805;28;20020;-65
2021/10/23 00:29:02;;;;;;;26.08;9.18;;;;;;;;;;5070152;28;20044;-65
2021/10/23 00:31:27;;;;;;;30.95;10.45;;;;;;;;;;5070085;28;20020;-64
2021/10/23 00:33:52;;;;;;;27.42;10.52;;;;;;;;;;5069864;28;20432;-64
2021/10/23 00:36:18;;;;;;;25.08;8.20;;;;;;;;;;5069433;28;20081;-65
2021/10/23 00:38:43;;;;;;;19.80;8.55;;;;;;;;;;5069015;28;20032;-67
2021/10/23 00:41:08;;;;;;;24.40;8.18;;;;;;;;;;5069958;28;20024;-64
2021/10/23 00:43:38;;;;;;;23.98;8.00;;;;;;;;;;5069875;28;20099;-68
2021/10/23 00:46:03;;;;;;;23.27;8.70;;;;;;;;;;5069945;28;20070;-69
2021/10/23 00:48:29;;;;;;;25.70;7.63;;;;;;;;;;5069360;28;20032;-65
2021/10/23 00:50:54;;;;;;;27.25;9.23;;;;;;;;;;5070021;28;20066;-67
2021/10/23 00:53:20;;;;;;;23.73;8.55;;;;;;;;;;5069533;28;20017;-65
2021/10/23 00:55:46;;;;;;;14.73;8.52;;;;;;;;;;5069976;28;20131;-67
2021/10/23 00:58:11;;;;;;;21.33;8.10;;;;;;;;;;5069043;28;20021;-65
2021/10/23 01:00:36;;;;;;;20.13;8.17;;;;;;;;;;5072632;28;20055;-66
2021/10/23 01:03:01;;;;;;;22.85;8.60;;;;;;;;;;5089687;28;20259;-65
2021/10/23 01:05:26;;;;;;;25.25;9.27;;;;;;;;;;5087636;28;20107;-65
2021/10/23 01:07:52;;;;;;;23.50;9.57;;;;;;;;;;5076144;28;20043;-64
2021/10/23 01:10:17;;;;;;;25.15;9.85;;;;;;;;;;5072993;28;20024;-65
2021/10/23 01:12:43;;;;;;;27.88;10.93;;;;;;;;;;5077979;28;20035;-65
2021/10/23 01:15:16;;;;;;;20.80;9.15;;;;;;;;;;5080447;28;20012;-67
2021/10/23 01:17:41;;;;;;;24.35;8.88;;;;;;;;;;5084062;28;20099;-66
2021/10/23 01:20:06;;;;;;;25.60;9.43;;;;;;;;;;5072981;28;20096;-66
2021/10/23 01:22:32;;;;;;;28.30;10.60;;;;;;;;;;5070774;28;20041;-64
2021/10/23 01:24:57;;;;;;;22.95;10.30;;;;;;;;;;5072114;28;20013;-66
2021/10/23 01:27:22;;;;;;;30.23;10.55;;;;;;;;;;5072961;28;20055;-65
2021/10/23 01:29:47;;;;;;;21.15;10.43;;;;;;;;;;5073017;28;20031;-66
2021/10/23 01:32:13;;;;;;;29.50;11.03;;;;;;;;;;5072808;28;20074;-65
2021/10/23 01:34:38;;;;;;;25.75;11.02;;;;;;;;;;5072710;28;20270;-65
2021/10/23 01:37:03;;;;;;;27.75;12.30;;;;;;;;;;5072724;28;20116;-68
2021/10/23 01:39:31;;;;;;;28.02;11.57;;;;;;;;;;5072720;28;20035;-65
2021/10/23 01:41:57;;;;;;;25.40;12.05;;;;;;;;;;5072673;28;20128;-65
2021/10/23 01:44:23;;;;;;;29.35;11.65;;;;;;;;;;5072633;28;20107;-66
2021/10/23 01:46:49;;;;;;;26.50;11.27;;;;;;;;;;5072443;28;20031;-64
2021/10/23 01:49:14;;;;;;;31.40;10.80;;;;;;;;;;5072364;28;20012;-67
2021/10/23 01:51:39;;;;;;;25.08;11.45;;;;;;;;;;5072569;28;20447;-65
2021/10/23 01:54:06;;;;;;;27.45;10.65;;;;;;;;;;5072169;28;20427;-66
2021/10/23 01:56:32;;;;;;;31.23;10.75;;;;;;;;;;5072333;28;20027;-65
2021/10/23 01:58:57;;;;;;;34.42;10.65;;;;;;;;;;5072200;28;20024;-66
2021/10/23 02:01:22;;;;;;;26.20;9.40;;;;;;;;;;5072285;28;20630;-66
2021/10/23 02:03:48;;;;;;;28.98;9.95;;;;;;;;;;5071964;28;20108;-66
2021/10/23 02:06:13;;;;;;;29.63;10.55;;;;;;;;;;5064082;28;20039;-65
2021/10/23 02:08:38;;;;;;;34.50;10.88;;;;;;;;;;5062658;28;20028;-68
2021/10/23 02:11:04;;;;;;;32.95;10.27;;;;;;;;;;5067399;28;20423;-64
2021/10/23 02:13:29;;;;;;;28.77;10.10;;;;;;;;;;5049079;28;20096;-65
2021/10/23 02:15:54;;;;;;;24.13;9.55;;;;;;;;;;5054587;28;20013;-66
2021/10/23 02:18:19;;;;;;;30.48;10.02;;;;;;;;;;5068908;28;20039;-65
2021/10/23 02:20:45;;;;;;;30.03;11.47;;;;;;;;;;5068659;28;20036;-67
2021/10/23 02:23:10;;;;;;;23.40;9.05;;;;;;;;;;5069059;28;20303;-64
2021/10/23 02:25:35;;;;;;;23.60;10.80;;;;;;;;;;5064559;28;20477;-68
2021/10/23 02:28:00;;;;;;;25.60;10.18;;;;;;;;;;5068456;28;20287;-65
2021/10/23 02:30:25;;;;;;;32.50;9.37;;;;;;;;;;5067164;28;20024;-66
2021/10/23 02:32:52;;;;;;;23.40;10.77;;;;;;;;;;5065883;28;20820;-64
2021/10/23 02:35:17;;;;;;;28.95;10.38;;;;;;;;;;5056843;28;20731;-66
2021/10/23 02:37:42;;;;;;;25.10;11.55;;;;;;;;;;5064779;28;20148;-64
2021/10/23 02:40:08;;;;;;;23.70;10.57;;;;;;;;;;5062185;28;20028;-66
2021/10/23 02:42:33;;;;;;;24.98;11.50;;;;;;;;;;5063475;28;20272;-65
2021/10/23 02:44:58;;;;;;;27.92;12.10;;;;;;;;;;5064190;28;20013;-65
2021/10/23 02:47:23;;;;;;;30.57;11.23;;;;;;;;;;5069506;28;20024;-64
2021/10/23 02:49:49;;;;;;;26.65;11.43;;;;;;;;;;5051184;28;20340;-66
2021/10/23 02:52:14;;;;;;;31.77;11.40;;;;;;;;;;5070279;28;20481;-67
2021/10/23 02:54:39;;;;;;;26.65;10.82;;;;;;;;;;5071305;28;20255;-66
2021/10/23 02:57:04;;;;;;;26.13;11.57;;;;;;;;;;5081718;28;20032;-66
2021/10/23 02:59:30;;;;;;;31.38;11.77;;;;;;;;;;5076504;28;20273;-65
2021/10/23 03:01:55;;;;;;;37.47;11.73;;;;;;;;;;5073858;28;20146;-67
2021/10/23 03:04:20;;;;;;;24.23;10.83;;;;;;;;;;5086905;28;20034;-66
2021/10/23 03:06:45;;;;;;;27.23;9.70;;;;;;;;;;5079906;28;20623;-65
2021/10/23 03:09:14;;;;;;;27.33;12.13;;;;;;;;;;5079601;28;20077;-67
2021/10/23 03:11:39;;;;;;;26.08;10.55;;;;;;;;;;5084583;28;20024;-65
2021/10/23 03:14:05;;;;;;;29.10;10.73;;;;;;;;;;5070865;28;20024;-66
2021/10/23 03:16:30;;;;;;;32.17;11.25;;;;;;;;;;5074802;28;20407;-64
2021/10/23 03:18:55;;;;;;;26.85;10.38;;;;;;;;;;5090196;28;20095;-66
2021/10/23 03:21:21;;;;;;;34.78;12.38;;;;;;;;;;5077023;28;20031;-65
2021/10/23 03:23:47;;;;;;;24.33;10.60;;;;;;;;;;5069826;28;20086;-64
2021/10/23 03:26:12;;;;;;;28.77;11.63;;;;;;;;;;5077221;28;20028;-65
2021/10/23 03:28:37;;;;;;;33.03;11.50;;;;;;;;;;5084850;28;20016;-65
2021/10/23 03:31:02;;;;;;;22.63;10.30;;;;;;;;;;5081397;28;20960;-65
2021/10/23 03:33:27;;;;;;;28.77;10.43;;;;;;;;;;5083226;28;20024;-66
2021/10/23 03:35:53;;;;;;;35.97;11.10;;;;;;;;;;5086727;28;20052;-65
2021/10/23 03:38:18;;;;;;;27.88;11.18;;;;;;;;;;5077171;28;20034;-66
2021/10/23 03:40:43;;;;;;;32.13;12.68;;;;;;;;;;5075134;28;20059;-64
2021/10/23 03:43:08;;;;;;;33.15;11.98;;;;;;;;;;5070545;28;20025;-64
2021/10/23 03:45:34;;;;;;;26.45;11.45;;;;;;;;;;5070153;28;20035;-64
2021/10/23 03:47:59;;;;;;;36.33;12.40;;;;;;;;;;5073285;28;20028;-64
2021/10/23 03:50:24;;;;;;;27.88;12.38;;;;;;;;;;5071700;28;20031;-67
2021/10/23 03:52:49;;;;;;;33.85;12.73;;;;;;;;;;5075152;28;20028;-65
2021/10/23 03:55:14;;;;;;;30.17;13.60;;;;;;;;;;5071765;28;20020;-65
2021/10/23 03:57:39;;;;;;;31.33;12.50;;;;;;;;;;5075874;28;20735;-64
2021/10/23 04:00:05;;;;;;;28.83;12.40;;;;;;;;;;5076034;28;20290;-65
2021/10/23 04:02:31;;;;;;;32.50;12.30;;;;;;;;;;5069924;28;20017;-66
2021/10/23 04:04:56;;;;;;;31.85;12.65;;;;;;;;;;5078636;28;20116;-65
2021/10/23 04:07:21;;;;;;;29.38;13.10;;;;;;;;;;5070891;28;20028;-65
2021/10/23 04:09:47;;;;;;;31.42;12.82;;;;;;;;;;5071491;28;20107;-66
2021/10/23 04:12:12;;;;;;;30.03;12.20;;;;;;;;;;5076992;28;20119;-65
2021/10/23 04:14:37;;;;;;;28.90;13.00;;;;;;;;;;5081712;28;20281;-66
2021/10/23 04:17:02;;;;;;;33.10;13.47;;;;;;;;;;5083482;28;20024;-65
2021/10/23 04:19:27;;;;;;;34.70;14.02;;;;;;;;;;5090138;28;20325;-65
2021/10/23 04:21:53;;;;;;;39.33;13.35;;;;;;;;;;5074489;28;20043;-67
2021/10/23 04:24:18;;;;;;;41.13;14.65;;;;;;;;;;5073924;28;20020;-64
2021/10/23 04:26:43;;;;;;;34.20;14.07;;;;;;;;;;5069899;28;20033;-65
2021/10/23 04:29:08;;;;;;;44.10;13.82;;;;;;;;;;5060372;28;20017;-65
2021/10/23 04:31:33;;;;;;;35.40;13.98;;;;;;;;;;5050034;28;20033;-67
2021/10/23 04:33:59;;;;;;;29.65;13.25;;;;;;;;;;5049862;28;20092;-66
2021/10/23 04:36:25;;;;;;;32.92;13.80;;;;;;;;;;5034362;28;20032;-64
2021/10/23 04:38:50;;;;;;;35.95;15.30;;;;;;;;;;5064868;28;20545;-66
2021/10/23 04:41:15;;;;;;;37.35;15.05;;;;;;;;;;5072913;28;20017;-66
2021/10/23 04:43:40;;;;;;;41.38;14.60;;;;;;;;;;5073493;28;20354;-65
2021/10/23 04:46:06;;;;;;;31.70;14.15;;;;;;;;;;5073807;28;20024;-65
2021/10/23 04:48:32;;;;;;;31.35;15.02;;;;;;;;;;5073256;28;20036;-66
2021/10/23 04:50:57;;;;;;;41.72;16.17;;;;;;;;;;5073682;28;20050;-65
2021/10/23 04:53:23;;;;;;;45.67;17.80;;;;;;;;;;5072795;28;20024;-67
2021/10/23 04:55:48;;;;;;;38.83;16.55;;;;;;;;;;5073607;28;20074;-65
2021/10/23 04:58:13;;;;;;;44.97;17.75;;;;;;;;;;5079670;28;20028;-65
2021/10/23 05:00:38;;;;;;;44.85;17.55;;;;;;;;;;5082583;28;20078;-67
2021/10/23 05:03:03;;;;;;;38.65;17.33;;;;;;;;;;5072388;28;20024;-65
2021/10/23 05:05:29;;;;;;;36.13;15.50;;;;;;;;;;5073854;28;20123;-65
2021/10/23 05:07:54;;;;;;;39.97;14.13;;;;;;;;;;5075827;28;20020;-65
2021/10/23 05:10:19;;;;;;;34.40;14.77;;;;;;;;;;5073026;28;20404;-66
2021/10/23 05:12:45;;;;;;;31.33;14.60;;;;;;;;;;5072568;28;20473;-64
2021/10/23 05:15:10;;;;;;;40.65;16.52;;;;;;;;;;5073159;28;20044;-66
2021/10/23 05:17:35;;;;;;;36.13;15.20;;;;;;;;;;5072799;28;20043;-65
2021/10/23 05:20:00;;;;;;;43.30;17.60;;;;;;;;;;5073275;28;20540;-66
2021/10/23 05:22:26;;;;;;;37.25;15.70;;;;;;;;;;5072481;28;20450;-65
2021/10/23 05:24:51;;;;;;;43.60;18.95;;;;;;;;;;5072564;28;20060;-66
2021/10/23 05:27:16;;;;;;;43.67;15.68;;;;;;;;;;5073076;28;20030;-65
2021/10/23 05:29:41;;;;;;;35.90;15.68;;;;;;;;;;5071940;28;20031;-66
2021/10/23 05:32:07;;;;;;;42.03;16.67;;;;;;;;;;5072134;28;20016;-65
2021/10/23 05:34:32;;;;;;;47.45;17.27;;;;;;;;;;5071415;28;20107;-66
2021/10/23 05:36:57;;;;;;;33.35;15.68;;;;;;;;;;5085849;22;20016;-68
2021/10/23 05:39:22;;;;;;;44.53;17.40;;;;;;;;;;5041074;28;20032;-69
2021/10/23 05:41:47;;;;;;;37.65;16.55;;;;;;;;;;5052028;28;20028;-69
2021/10/23 05:44:13;;;;;;;40.10;15.52;;;;;;;;;;5059617;28;20475;-69
2021/10/23 05:46:39;;;;;;;36.30;15.68;;;;;;;;;;5053665;28;20056;-69
2021/10/23 05:49:04;;;;;;;46.53;17.17;;;;;;;;;;5033673;28;20061;-69
2021/10/23 05:51:29;;;;;;;39.88;16.98;;;;;;;;;;5052247;28;20106;-69
2021/10/23 05:53:54;;;;;;;37.75;16.65;;;;;;;;;;5051671;28;20376;-69
2021/10/23 05:56:21;;;;;;;46.75;16.33;;;;;;;;;;5052068;28;20031;-69
2021/10/23 05:58:46;;;;;;;43.80;16.80;;;;;;;;;;5052141;28;20374;-69
2021/10/23 06:01:11;;;;;;;41.08;16.33;;;;;;;;;;5052261;28;20029;-69
2021/10/23 06:03:38;;;;;;;43.42;16.55;;;;;;;;;;5045542;28;20044;-69
2021/10/23 06:06:04;;;;;;;41.20;16.10;;;;;;;;;;5049351;28;20017;-69
2021/10/23 06:08:30;;;;;;;37.60;16.23;;;;;;;;;;5042107;28;20025;-69
2021/10/23 06:10:55;;;;;;;39.65;15.82;;;;;;;;;;5045147;28;20051;-69
2021/10/23 06:13:22;;;;;;;35.15;16.85;;;;;;;;;;5034926;28;20021;-69
2021/10/23 06:15:48;;;;;;;48.38;17.20;;;;;;;;;;5048649;28;20343;-69
2021/10/23 06:18:13;;;;;;;37.05;16.85;;;;;;;;;;5046856;28;20025;-69
2021/10/23 06:20:38;;;;;;;39.47;16.48;;;;;;;;;;5035846;28;20037;-69
2021/10/23 06:23:03;;;;;;;39.92;15.95;;;;;;;;;;5046253;28;20025;-69
2021/10/23 06:25:28;;;;;;;38.70;14.65;;;;;;;;;;5049641;28;20063;-69
2021/10/23 06:27:56;;;;;;;45.40;16.30;;;;;;;;;;5049711;28;20111;-69
2021/10/23 06:30:21;;;;;;;47.03;17.98;;;;;;;;;;5049918;28;20021;-69
2021/10/23 06:32:47;;;;;;;39.90;16.67;;;;;;;;;;5049682;28;20027;-69
2021/10/23 06:35:12;;;;;;;33.08;16.02;;;;;;;;;;5049629;28;20056;-69
2021/10/23 06:37:37;;;;;;;41.60;16.83;;;;;;;;;;5049170;28;20078;-69
2021/10/23 06:40:03;;;;;;;35.42;17.48;;;;;;;;;;5030960;28;20110;-69
2021/10/23 06:42:28;;;;;;;45.47;16.95;;;;;;;;;;5038563;28;20027;-69
2021/10/23 06:44:53;;;;;;;38.17;17.38;;;;;;;;;;5036615;28;20289;-69
2021/10/23 06:47:18;;;;;;;43.95;17.38;;;;;;;;;;5051206;28;20067;-69
2021/10/23 06:49:43;;;;;;;38.20;17.43;;;;;;;;;;5050500;28;20093;-69
2021/10/23 06:52:08;;;;;;;44.13;19.37;;;;;;;;;;5050883;28;20282;-69
2021/10/23 06:54:35;;;;;;;46.53;17.95;;;;;;;;;;5050139;28;20317;-69
2021/10/23 06:57:00;;;;;;;40.03;17.80;;;;;;;;;;5050740;28;20013;-69
2021/10/23 06:59:25;;;;;;;51.10;17.92;;;;;;;;;;5050749;28;20021;-69
2021/10/23 07:01:50;;;;;;;52.65;19.92;;;;;;;;;;5050296;28;20029;-69
2021/10/23 07:04:15;;;;;;;47.75;21.75;;;;;;;;;;5050752;28;20079;-69
2021/10/23 07:06:41;;;;;;;51.60;21.13;;;;;;;;;;5050578;28;20017;-69
2021/10/23 07:09:06;;;;;;;51.17;19.27;;;;;;;;;;5050801;28;20071;-69
2021/10/23 07:11:31;;;;;;;39.73;18.80;;;;;;;;;;5050601;28;20139;-69
2021/10/23 07:13:56;;;;;;;46.22;21.40;;;;;;;;;;5050627;28;20251;-69
2021/10/23 07:16:21;;;;;;;45.22;19.30;;;;;;;;;;5050886;28;20025;-69
2021/10/23 07:18:47;;;;;;;43.08;19.30;;;;;;;;;;5046656;28;20017;-69
2021/10/23 07:21:12;;;;;;;44.20;21.83;;;;;;;;;;5031177;28;20017;-69
2021/10/23 07:23:37;;;;;;;45.13;20.10;;;;;;;;;;5044492;28;20028;-69
2021/10/23 07:26:03;;;;;;;49.38;21.13;;;;;;;;;;5050989;28;20052;-69
2021/10/23 07:28:28;;;;;;;49.97;19.80;;;;;;;;;;5050768;28;20021;-69
2021/10/23 07:30:53;;;;;;;45.10;19.83;;;;;;;;;;5050750;28;20025;-69
2021/10/23 07:33:18;;;;;;;54.38;19.08;;;;;;;;;;5050422;28;20373;-69
2021/10/23 07:35:43;;;;;;;81.53;24.58;;;;;;;;;;5050214;28;20389;-69
2021/10/23 07:38:09;;;;;;;53.25;20.65;;;;;;;;;;5050041;28;20035;-69
2021/10/23 07:40:34;;;;;;;49.10;19.58;;;;;;;;;;5050163;28;20437;-69
2021/10/23 07:42:59;;;;;;;39.20;19.83;;;;;;;;;;5047250;28;20025;-69
2021/10/23 07:45:25;;;;;;;53.08;23.17;;;;;;;;;;5042189;28;20021;-69
2021/10/23 07:47:50;;;;;;;54.10;20.10;;;;;;;;;;5049980;28;20602;-69
2021/10/23 07:50:15;;;;;;;42.88;18.95;;;;;;;;;;5042459;28;20124;-69
2021/10/23 07:52:41;;;;;;;46.00;20.05;;;;;;;;;;5032350;28;20096;-69
2021/10/23 07:55:07;;;;;;;46.55;20.90;;;;;;;;;;5028407;28;20474;-69
2021/10/23 07:57:33;;;;;;;39.10;19.17;;;;;;;;;;5027907;28;20028;-69
2021/10/23 07:59:58;;;;;;;37.58;18.35;;;;;;;;;;5034755;28;20469;-69
2021/10/23 08:02:24;;;;;;;48.43;19.70;;;;;;;;;;5047920;28;20056;-69
2021/10/23 08:04:50;;;;;;;44.97;17.73;;;;;;;;;;5047966;28;20263;-69
2021/10/23 08:07:15;;;;;;;42.08;17.00;;;;;;;;;;5048207;28;20393;-69
2021/10/23 08:09:40;;;;;;;46.30;21.13;;;;;;;;;;5047500;28;20033;-69
2021/10/23 08:12:05;;;;;;;38.20;19.40;;;;;;;;;;5045026;28;20051;-69
2021/10/23 08:14:34;;;;;;;44.47;19.25;;;;;;;;;;5042988;28;20029;-69
2021/10/23 08:16:59;;;;;;;45.97;20.33;;;;;;;;;;5052094;28;20082;-69
2021/10/23 08:19:25;;;;;;;43.17;18.95;;;;;;;;;;5051212;28;20048;-69
2021/10/23 08:21:50;;;;;;;39.03;14.77;;;;;;;;;;5051819;28;20033;-69
2021/10/23 08:24:16;;;;;;;44.67;21.52;;;;;;;;;;5052078;28;20052;-69
2021/10/23 08:26:42;;;;;;;49.13;21.08;;;;;;;;;;5040255;28;20874;-69
2021/10/23 08:29:07;;;;;;;43.83;20.42;;;;;;;;;;5031789;28;20600;-69
2021/10/23 08:31:32;;;;;;;41.95;18.75;;;;;;;;;;5037742;28;20028;-69
2021/10/23 08:33:58;;;;;;;37.20;17.52;;;;;;;;;;5047308;28;20469;-69
2021/10/23 08:36:23;;;;;;;36.63;16.50;;;;;;;;;;5052080;28;20381;-69
2021/10/23 08:38:49;;;;;;;47.50;18.75;;;;;;;;;;5046206;28;20389;-69
2021/10/23 08:41:15;;;;;;;42.85;17.73;;;;;;;;;;5036703;28;20100;-69
2021/10/23 08:43:42;;;;;;;28.17;14.23;;;;;;;;;;5031717;28;20049;-70
2021/10/23 08:46:08;;;;;;;36.80;15.52;;;;;;;;;;5033005;28;20029;-70
2021/10/23 08:48:33;;;;;;;31.23;17.38;;;;;;;;;;5037444;28;20520;-70
2021/10/23 08:51:00;;;;;;;40.80;16.95;;;;;;;;;;5047613;28;20025;-70
2021/10/23 08:53:27;;;;;;;36.75;14.98;;;;;;;;;;5045458;28;20293;-70
2021/10/23 08:55:52;;;;;;;40.17;17.00;;;;;;;;;;5047093;28;20051;-70
2021/10/23 08:58:17;;;;;;;37.72;16.67;;;;;;;;;;5046200;28;20021;-70
2021/10/23 09:00:46;;;;;;;35.00;15.38;;;;;;;;;;5053110;28;20156;-70
2021/10/23 09:03:12;;;;;;;26.75;12.02;;;;;;;;;;5053027;28;20078;-70
2021/10/23 09:05:37;;;;;;;37.63;16.08;;;;;;;;;;5053294;28;20021;-70
2021/10/23 09:08:10;;;;;;;34.83;16.67;;;;;;;;;;5053259;28;20083;-69
2021/10/23 09:10:35;;;;;;;33.22;17.65;;;;;;;;;;5053386;28;20049;-69
2021/10/23 09:13:02;;;;;;;32.00;18.13;;;;;;;;;;5053371;28;20056;-69
2021/10/23 09:15:30;;;;;;;39.38;16.88;;;;;;;;;;5053500;28;20021;-69
2021/10/23 09:17:55;;;;;;;37.20;17.52;;;;;;;;;;5053414;28;20024;-69
2021/10/23 09:20:20;;;;;;;34.00;15.52;;;;;;;;;;5053304;28;20029;-69
2021/10/23 09:22:47;;;;;;;38.50;16.85;;;;;;;;;;5047576;28;20066;-69
2021/10/23 09:25:14;;;;;;;38.30;17.35;;;;;;;;;;5051436;28;20013;-69
2021/10/23 09:27:51;;;;;;;36.13;17.25;;;;;;;;;;5052880;28;20021;-68
2021/10/23 09:30:17;;;;;;;36.83;15.93;;;;;;;;;;5036983;28;20072;-69
2021/10/23 09:32:48;;;;;;;36.00;17.65;;;;;;;;;;5047623;28;20029;-69
2021/10/23 09:35:14;;;;;;;34.90;16.70;;;;;;;;;;5053212;28;20017;-69
2021/10/23 09:37:42;;;;;;;37.47;15.65;;;;;;;;;;5050107;28;20032;-69
2021/10/23 09:40:07;;;;;;;32.15;15.35;;;;;;;;;;5044910;28;20466;-69
2021/10/23 09:42:32;;;;;;;27.02;14.27;;;;;;;;;;5041675;28;20021;-69
2021/10/23 09:45:05;;;;;;;28.80;15.48;;;;;;;;;;5044569;28;20108;-68
2021/10/23 09:47:31;;;;;;;29.58;13.65;;;;;;;;;;5045962;28;20024;-68
2021/10/23 09:50:07;;;;;;;38.70;13.95;;;;;;;;;;5040511;28;20051;-69
2021/10/23 09:52:32;;;;;;;33.58;13.48;;;;;;;;;;5046489;28;20046;-69
2021/10/23 09:55:07;;;;;;;38.20;16.73;;;;;;;;;;5051821;28;20100;-69
2021/10/23 09:57:33;;;;;;;33.42;14.18;;;;;;;;;;5051873;28;20013;-69
2021/10/23 10:00:05;;;;;;;35.95;15.82;;;;;;;;;;5052722;28;20024;-69
2021/10/23 10:02:31;;;;;;;39.25;16.25;;;;;;;;;;5051864;28;20149;-69
2021/10/23 10:04:57;;;;;;;43.63;17.85;;;;;;;;;;5052749;28;20021;-69
2021/10/23 10:07:22;;;;;;;32.65;16.17;;;;;;;;;;5052031;28;20025;-69
2021/10/23 10:09:47;;;;;;;29.95;13.23;;;;;;;;;;5051759;28;20017;-69
2021/10/23 10:12:13;;;;;;;32.85;13.55;;;;;;;;;;5050693;28;20104;-69
2021/10/23 10:14:39;;;;;;;37.28;15.20;;;;;;;;;;5041928;28;20013;-69
2021/10/23 10:17:04;;;;;;;39.20;15.20;;;;;;;;;;5032103;28;20463;-69
2021/10/23 10:19:29;;;;;;;30.20;12.97;;;;;;;;;;5035858;28;20033;-69
2021/10/23 10:21:54;;;;;;;28.10;14.80;;;;;;;;;;5047854;28;20353;-69
2021/10/23 10:24:23;;;;;;;35.38;14.80;;;;;;;;;;5051656;28;20029;-69
2021/10/23 10:27:05;;;;;;;37.03;14.02;;;;;;;;;;5051182;28;20031;-69
2021/10/23 10:29:34;;;;;;;30.98;15.65;;;;;;;;;;5050635;28;20021;-69
2021/10/23 10:32:04;;;;;;;30.58;14.13;;;;;;;;;;5045592;28;20036;-69
2021/10/23 10:38:09;;;;;;;41.88;13.05;;;;;;;;;;5041626;28;20112;-69
2021/10/23 10:42:51;;;;;;;37.28;14.65;;;;;;;;;;5039984;28;20032;-69
2021/10/23 10:45:25;;;;;;;38.45;14.00;;;;;;;;;;5040796;28;20406;-69
2021/10/23 10:48:09;;;;;;;28.75;12.77;;;;;;;;;;5045376;28;20571;-69
2021/10/23 10:50:35;;;;;;;46.70;13.35;;;;;;;;;;5047873;28;20025;-69
2021/10/23 10:53:11;;;;;;;24.40;12.00;;;;;;;;;;5050513;28;20021;-69
2021/10/23 10:55:38;;;;;;;30.27;13.10;;;;;;;;;;5049704;28;20005;-69
2021/10/23 10:58:05;;;;;;;34.85;12.25;;;;;;;;;;5050376;28;20082;-69
2021/10/23 11:00:46;;;;;;;27.17;12.27;;;;;;;;;;5032058;28;20029;-69
2021/10/23 11:03:31;;;;;;;23.92;11.00;;;;;;;;;;5049658;28;20063;-69
2021/10/23 11:05:56;;;;;;;38.97;11.73;;;;;;;;;;5044497;28;20401;-69
2021/10/23 11:08:21;;;;;;;29.60;12.07;;;;;;;;;;5049840;28;20021;-69
2021/10/23 11:10:47;;;;;;;22.23;10.63;;;;;;;;;;5038849;28;20045;-69
2021/10/23 11:13:26;;;;;;;31.30;12.10;;;;;;;;;;5035242;28;20065;-70
2021/10/23 11:15:51;;;;;;;32.20;11.25;;;;;;;;;;5049398;28;20614;-69
2021/10/23 11:18:17;;;;;;;26.42;11.50;;;;;;;;;;5049794;28;20024;-70
2021/10/23 11:20:43;;;;;;;32.08;12.60;;;;;;;;;;5049789;28;20025;-69
2021/10/23 11:23:09;;;;;;;27.25;11.05;;;;;;;;;;5049348;28;20078;-69
2021/10/23 11:25:37;;;;;;;29.70;11.70;;;;;;;;;;5049146;28;20025;-69
2021/10/23 11:28:08;;;;;;;26.35;11.73;;;;;;;;;;5044484;28;20020;-69
2021/10/23 11:30:40;;;;;;;27.00;12.35;;;;;;;;;;5031875;28;20378;-69
2021/10/23 11:33:06;;;;;;;33.90;11.05;;;;;;;;;;5036455;28;20050;-69
2021/10/23 11:35:33;;;;;;;23.10;10.48;;;;;;;;;;5048383;28;20029;-69
2021/10/23 11:40:26;;;;;;;28.00;12.15;;;;;;;;;;5046976;28;20060;-67
2021/10/23 11:42:51;;;;;;;24.35;10.73;;;;;;;;;;5048433;28;20013;-66
2021/10/23 11:45:19;;;;;;;39.33;11.00;;;;;;;;;;5047854;28;20143;-66
2021/10/23 11:47:45;;;;;;;21.42;10.55;;;;;;;;;;5038674;28;20017;-66
2021/10/23 11:50:31;;;;;;;25.85;10.40;;;;;;;;;;5043803;28;20029;-67
2021/10/23 11:53:00;;;;;;;24.05;10.73;;;;;;;;;;5049017;28;20491;-66
2021/10/23 11:55:30;;;;;;;23.85;9.98;;;;;;;;;;5051411;28;20564;-66
2021/10/23 11:57:56;;;;;;;32.92;9.90;;;;;;;;;;5048773;28;20530;-66
2021/10/23 12:00:21;;;;;;;23.23;10.82;;;;;;;;;;5045372;28;20033;-68
2021/10/23 12:03:01;;;;;;;21.13;9.98;;;;;;;;;;5047791;28;20028;-67
2021/10/23 12:05:44;;;;;;;24.15;10.50;;;;;;;;;;5048922;28;20043;-66
2021/10/23 12:08:12;;;;;;;26.00;10.70;;;;;;;;;;5050488;28;20029;-68
2021/10/23 12:11:09;;;;;;;19.98;9.98;;;;;;;;;;5050586;28;20047;-67
2021/10/23 12:13:45;;;;;;;30.08;10.13;;;;;;;;;;4994480;28;20029;-67
2021/10/23 12:16:10;;;;;;;19.08;8.10;;;;;;;;;;5050362;28;20123;-66
2021/10/23 12:18:46;;;;;;;20.73;9.60;;;;;;;;;;5047150;28;20111;-67
2021/10/23 12:21:18;;;;;;;17.33;6.47;;;;;;;;;;5046641;28;20021;-65
2021/10/23 12:23:49;;;;;;;22.63;8.52;;;;;;;;;;5049905;28;20024;-65
2021/10/23 12:26:15;;;;;;;21.23;8.38;;;;;;;;;;5049547;28;20086;-66
2021/10/23 12:28:56;;;;;;;27.90;8.70;;;;;;;;;;5048447;28;20237;-65
2021/10/23 12:31:21;;;;;;;22.90;7.75;;;;;;;;;;5050108;28;20436;-65
2021/10/23 12:34:00;;;;;;;20.60;7.57;;;;;;;;;;5038327;28;20118;-65
2021/10/23 12:36:25;;;;;;;18.15;7.15;;;;;;;;;;5030344;28;20080;-65
2021/10/23 12:38:50;;;;;;;27.00;8.63;;;;;;;;;;5029921;28;20030;-65
2021/10/23 12:41:16;;;;;;;28.67;7.97;;;;;;;;;;5036500;28;20740;-65
2021/10/23 12:43:41;;;;;;;24.38;9.27;;;;;;;;;;5048282;28;20275;-67
2021/10/23 12:46:07;;;;;;;22.20;7.97;;;;;;;;;;5048061;28;20404;-65
2021/10/23 12:48:32;;;;;;;15.10;6.43;;;;;;;;;;5047253;28;20287;-66
2021/10/23 12:50:58;;;;;;;16.13;6.28;;;;;;;;;;5048746;28;20027;-65
2021/10/23 12:53:23;;;;;;;21.85;6.05;;;;;;;;;;5043012;28;20320;-65
2021/10/23 12:55:48;;;;;;;20.20;6.45;;;;;;;;;;5049540;28;20019;-68
2021/10/23 12:58:14;;;;;;;15.88;6.45;;;;;;;;;;5052099;28;20099;-68
2021/10/23 13:00:40;;;;;;;18.23;5.82;;;;;;;;;;5053364;28;20472;-67
2021/10/23 13:03:06;;;;;;;16.98;5.63;;;;;;;;;;5052519;28;20400;-67
2021/10/23 13:05:31;;;;;;;19.52;5.25;;;;;;;;;;5052936;28;20025;-68
2021/10/23 13:07:56;;;;;;;20.42;5.28;;;;;;;;;;5052696;28;20516;-66
2021/10/23 13:10:21;;;;;;;16.25;6.10;;;;;;;;;;5053056;28;20017;-67
2021/10/23 13:12:47;;;;;;;19.05;4.90;;;;;;;;;;5052822;28;20025;-68
2021/10/23 13:15:13;;;;;;;16.15;4.45;;;;;;;;;;5052773;28;20027;-67
2021/10/23 13:17:39;;;;;;;16.25;5.95;;;;;;;;;;5052611;28;20028;-66
2021/10/23 13:20:05;;;;;;;15.30;5.53;;;;;;;;;;5052722;28;20484;-67
2021/10/23 13:22:30;;;;;;;17.10;6.15;;;;;;;;;;5052813;28;20024;-67
2021/10/23 13:24:55;;;;;;;14.85;5.32;;;;;;;;;;5051421;28;20017;-67
2021/10/23 13:27:21;;;;;;;16.08;4.80;;;;;;;;;;5049158;28;20063;-66
2021/10/23 13:29:46;;;;;;;11.07;4.38;;;;;;;;;;5052208;28;20468;-67
2021/10/23 13:32:11;;;;;;;14.25;5.75;;;;;;;;;;5050576;28;20082;-66
2021/10/23 13:34:37;;;;;;;12.90;4.85;;;;;;;;;;5052653;28;20025;-67
2021/10/23 13:37:02;;;;;;;19.33;6.67;;;;;;;;;;5051582;28;20507;-68
2021/10/23 13:39:27;;;;;;;17.60;6.07;;;;;;;;;;5048442;28;20278;-68
2021/10/23 13:41:53;;;;;;;19.98;5.88;;;;;;;;;;5043806;28;20024;-68
2021/10/23 13:44:18;;;;;;;16.98;5.25;;;;;;;;;;5051971;28;20021;-68
2021/10/23 13:46:46;;;;;;;18.00;7.45;;;;;;;;;;5051718;28;20402;-67
2021/10/23 13:49:11;;;;;;;17.83;6.10;;;;;;;;;;5051626;28;20033;-67
2021/10/23 13:51:36;;;;;;;22.52;5.45;;;;;;;;;;5051738;28;20552;-66
2021/10/23 13:54:02;;;;;;;13.45;4.55;;;;;;;;;;5051430;28;20020;-66
2021/10/23 13:56:27;;;;;;;11.55;5.10;;;;;;;;;;5051019;28;20024;-65
2021/10/23 13:58:52;;;;;;;14.80;4.35;;;;;;;;;;5051406;28;20112;-66
2021/10/23 14:01:17;;;;;;;16.38;4.20;;;;;;;;;;5051475;28;20016;-66
2021/10/23 14:03:44;;;;;;;19.85;4.55;;;;;;;;;;5051790;28;20107;-65
2021/10/23 14:06:09;;;;;;;15.35;3.90;;;;;;;;;;5052097;28;20416;-65
2021/10/23 14:08:34;;;;;;;21.73;5.70;;;;;;;;;;5050653;28;20029;-67
2021/10/23 14:11:00;;;;;;;29.83;5.45;;;;;;;;;;5050968;28;20032;-68
2021/10/23 14:13:25;;;;;;;23.45;5.78;;;;;;;;;;5051315;28;20492;-67
2021/10/23 14:15:50;;;;;;;11.65;5.32;;;;;;;;;;5051552;28;20116;-68
2021/10/23 14:18:15;;;;;;;22.52;6.82;;;;;;;;;;5051234;28;20120;-67
2021/10/23 14:20:40;;;;;;;24.33;6.43;;;;;;;;;;5051916;28;20032;-68
2021/10/23 14:23:11;;;;;;;13.25;5.25;;;;;;;;;;5051047;28;20632;-66
2021/10/23 14:25:37;;;;;;;17.42;5.75;;;;;;;;;;5051668;28;20021;-67